sensor_id;sensor_type;location;lat;lon;timestamp;P1;durP1;ratioP1;P2;durP2;ratioP2
55270;SDS011;41132;47.162;9.470;2022-09-09T00:00:38;4.15;;;1.48;;
55270;SDS011;41132;47.162;9.470;2022-09-09T00:03:14;3.67;;;1.70;;
55270;SDS011;41132;47.162;9.470;2022-09-09T00:08:24;3.92;;;1.70;;
55270;SDS011;41132;47.162;9.470;2022-09-09T00:10:58;5.25;;;1.48;;
55270;SDS011;41132;47.162;9.470;2022-09-09T00:18:50;4.47;;;1.42;;
55270;SDS011;41132;47.162;9.470;2022-09-09T00:21:22;4.47;;;1.15;;
55270;SDS011;41132;47.162;9.470;2022-09-09T00:23:56;3.67;;;1.30;;
55270;SDS011;41132;47.162;9.470;2022-09-09T00:28:56;5.45;;;1.40;;
55270;SDS011;41132;47.162;9.470;2022-09-09T00:31:28;4.27;;;1.43;;
55270;SDS011;41132;47.162;9.470;2022-09-09T00:33:57;3.25;;;1.30;;
55270;SDS011;41132;47.162;9.470;2022-09-09T00:36:29;5.18;;;1.60;;
55270;SDS011;41132;47.162;9.470;2022-09-09T00:38:59;4.32;;;1.52;;
55270;SDS011;41132;47.162;9.470;2022-09-09T00:47:25;2.95;;;1.23;;
55270;SDS011;41132;47.162;9.470;2022-09-09T00:58:07;3.30;;;1.30;;
55270;SDS011;41132;47.162;9.470;2022-09-09T01:16:53;3.50;;;1.35;;
55270;SDS011;41132;47.162;9.470;2022-09-09T01:19:40;5.50;;;1.45;;
55270;SDS011;41132;47.162;9.470;2022-09-09T01:25:06;3.05;;;1.13;;
55270;SDS011;41132;47.162;9.470;2022-09-09T01:27:34;5.20;;;1.40;;
55270;SDS011;41132;47.162;9.470;2022-09-09T01:30:05;4.85;;;1.52;;
55270;SDS011;41132;47.162;9.470;2022-09-09T01:32:42;5.45;;;1.20;;
55270;SDS011;41132;47.162;9.470;2022-09-09T01:35:09;3.75;;;1.20;;
55270;SDS011;41132;47.162;9.470;2022-09-09T01:37:39;3.33;;;1.48;;
55270;SDS011;41132;47.162;9.470;2022-09-09T01:40:05;4.90;;;1.40;;
55270;SDS011;41132;47.162;9.470;2022-09-09T01:42:31;4.50;;;1.17;;
55270;SDS011;41132;47.162;9.470;2022-09-09T01:44:56;3.00;;;1.15;;
55270;SDS011;41132;47.162;9.470;2022-09-09T01:47:22;3.03;;;1.15;;
55270;SDS011;41132;47.162;9.470;2022-09-09T01:49:47;4.75;;;1.40;;
55270;SDS011;41132;47.162;9.470;2022-09-09T01:52:13;6.50;;;1.40;;
55270;SDS011;41132;47.162;9.470;2022-09-09T01:54:38;4.40;;;1.48;;
55270;SDS011;41132;47.162;9.470;2022-09-09T02:00:01;1.92;;;1.08;;
55270;SDS011;41132;47.162;9.470;2022-09-09T02:05:41;3.88;;;1.20;;
55270;SDS011;41132;47.162;9.470;2022-09-09T02:08:26;2.42;;;1.20;;
55270;SDS011;41132;47.162;9.470;2022-09-09T02:10:59;3.55;;;1.20;;
55270;SDS011;41132;47.162;9.470;2022-09-09T02:13:30;5.72;;;1.10;;
55270;SDS011;41132;47.162;9.470;2022-09-09T02:16:05;2.45;;;1.10;;
55270;SDS011;41132;47.162;9.470;2022-09-09T02:21:07;1.67;;;1.00;;
55270;SDS011;41132;47.162;9.470;2022-09-09T02:23:33;5.22;;;1.08;;
55270;SDS011;41132;47.162;9.470;2022-09-09T02:26:00;3.60;;;1.27;;
55270;SDS011;41132;47.162;9.470;2022-09-09T02:28:29;6.85;;;1.40;;
55270;SDS011;41132;47.162;9.470;2022-09-09T02:30:57;5.18;;;2.10;;
55270;SDS011;41132;47.162;9.470;2022-09-09T02:33:24;8.85;;;2.80;;
55270;SDS011;41132;47.162;9.470;2022-09-09T02:35:54;6.18;;;1.77;;
55270;SDS011;41132;47.162;9.470;2022-09-09T02:38:26;6.40;;;1.93;;
55270;SDS011;41132;47.162;9.470;2022-09-09T02:40:57;8.07;;;3.50;;
55270;SDS011;41132;47.162;9.470;2022-09-09T02:43:23;8.40;;;4.18;;
55270;SDS011;41132;47.162;9.470;2022-09-09T02:45:56;7.85;;;4.15;;
55270;SDS011;41132;47.162;9.470;2022-09-09T02:48:41;6.53;;;3.10;;
55270;SDS011;41132;47.162;9.470;2022-09-09T02:53:59;5.90;;;2.13;;
55270;SDS011;41132;47.162;9.470;2022-09-09T02:56:37;4.97;;;1.40;;
55270;SDS011;41132;47.162;9.470;2022-09-09T02:59:06;2.88;;;1.40;;
55270;SDS011;41132;47.162;9.470;2022-09-09T03:01:32;3.63;;;1.50;;
55270;SDS011;41132;47.162;9.470;2022-09-09T03:03:57;5.63;;;1.63;;
55270;SDS011;41132;47.162;9.470;2022-09-09T03:06:23;1.98;;;1.10;;
55270;SDS011;41132;47.162;9.470;2022-09-09T03:08:48;3.80;;;1.30;;
55270;SDS011;41132;47.162;9.470;2022-09-09T03:11:15;3.17;;;1.40;;
55270;SDS011;41132;47.162;9.470;2022-09-09T03:13:41;2.45;;;1.00;;
55270;SDS011;41132;47.162;9.470;2022-09-09T03:16:06;4.22;;;1.30;;
55270;SDS011;41132;47.162;9.470;2022-09-09T03:18:31;5.15;;;1.42;;
55270;SDS011;41132;47.162;9.470;2022-09-09T03:20:57;2.75;;;1.30;;
55270;SDS011;41132;47.162;9.470;2022-09-09T03:23:24;3.80;;;1.20;;
55270;SDS011;41132;47.162;9.470;2022-09-09T03:25:51;2.42;;;1.25;;
55270;SDS011;41132;47.162;9.470;2022-09-09T03:28:17;5.13;;;1.27;;
55270;SDS011;41132;47.162;9.470;2022-09-09T03:30:42;3.95;;;1.63;;
55270;SDS011;41132;47.162;9.470;2022-09-09T03:33:08;4.15;;;1.33;;
55270;SDS011;41132;47.162;9.470;2022-09-09T03:35:33;2.78;;;1.23;;
55270;SDS011;41132;47.162;9.470;2022-09-09T03:37:58;4.95;;;1.52;;
55270;SDS011;41132;47.162;9.470;2022-09-09T03:40:25;5.07;;;1.50;;
55270;SDS011;41132;47.162;9.470;2022-09-09T03:42:51;6.72;;;1.23;;
55270;SDS011;41132;47.162;9.470;2022-09-09T03:45:16;2.30;;;1.42;;
55270;SDS011;41132;47.162;9.470;2022-09-09T03:47:42;2.42;;;1.20;;
55270;SDS011;41132;47.162;9.470;2022-09-09T03:50:08;3.60;;;1.27;;
55270;SDS011;41132;47.162;9.470;2022-09-09T03:52:36;4.60;;;1.20;;
55270;SDS011;41132;47.162;9.470;2022-09-09T03:55:02;2.72;;;1.27;;
55270;SDS011;41132;47.162;9.470;2022-09-09T03:57:28;2.70;;;1.15;;
55270;SDS011;41132;47.162;9.470;2022-09-09T03:59:54;4.15;;;1.13;;
55270;SDS011;41132;47.162;9.470;2022-09-09T04:02:20;2.63;;;1.33;;
55270;SDS011;41132;47.162;9.470;2022-09-09T04:04:46;3.78;;;1.27;;
55270;SDS011;41132;47.162;9.470;2022-09-09T04:07:11;3.63;;;1.35;;
55270;SDS011;41132;47.162;9.470;2022-09-09T04:09:37;4.25;;;1.30;;
55270;SDS011;41132;47.162;9.470;2022-09-09T04:12:03;2.40;;;1.10;;
55270;SDS011;41132;47.162;9.470;2022-09-09T04:14:29;3.15;;;1.17;;
55270;SDS011;41132;47.162;9.470;2022-09-09T04:16:54;3.03;;;1.20;;
55270;SDS011;41132;47.162;9.470;2022-09-09T04:19:22;4.00;;;1.20;;
55270;SDS011;41132;47.162;9.470;2022-09-09T04:21:47;2.90;;;1.20;;
55270;SDS011;41132;47.162;9.470;2022-09-09T04:24:16;4.15;;;1.52;;
55270;SDS011;41132;47.162;9.470;2022-09-09T04:26:42;3.70;;;1.20;;
55270;SDS011;41132;47.162;9.470;2022-09-09T04:29:08;4.57;;;1.40;;
55270;SDS011;41132;47.162;9.470;2022-09-09T04:31:33;2.58;;;1.13;;
55270;SDS011;41132;47.162;9.470;2022-09-09T04:33:59;2.47;;;1.10;;
55270;SDS011;41132;47.162;9.470;2022-09-09T04:36:29;3.20;;;1.33;;
55270;SDS011;41132;47.162;9.470;2022-09-09T04:38:56;3.80;;;1.30;;
55270;SDS011;41132;47.162;9.470;2022-09-09T04:41:22;2.60;;;1.20;;
55270;SDS011;41132;47.162;9.470;2022-09-09T04:43:47;2.63;;;1.15;;
55270;SDS011;41132;47.162;9.470;2022-09-09T04:46:13;2.65;;;1.30;;
55270;SDS011;41132;47.162;9.470;2022-09-09T04:48:38;4.70;;;1.67;;
55270;SDS011;41132;47.162;9.470;2022-09-09T04:51:05;4.03;;;1.20;;
55270;SDS011;41132;47.162;9.470;2022-09-09T04:53:32;2.03;;;1.02;;
55270;SDS011;41132;47.162;9.470;2022-09-09T04:56:03;4.38;;;1.42;;
55270;SDS011;41132;47.162;9.470;2022-09-09T04:58:30;2.58;;;1.13;;
55270;SDS011;41132;47.162;9.470;2022-09-09T05:01:02;2.65;;;1.35;;
55270;SDS011;41132;47.162;9.470;2022-09-09T05:03:35;2.70;;;1.30;;
55270;SDS011;41132;47.162;9.470;2022-09-09T05:06:10;3.15;;;1.25;;
55270;SDS011;41132;47.162;9.470;2022-09-09T05:08:38;4.47;;;1.23;;
55270;SDS011;41132;47.162;9.470;2022-09-09T05:11:12;5.40;;;1.10;;
55270;SDS011;41132;47.162;9.470;2022-09-09T05:13:57;6.13;;;1.58;;
55270;SDS011;41132;47.162;9.470;2022-09-09T05:16:23;5.05;;;1.63;;
55270;SDS011;41132;47.162;9.470;2022-09-09T05:18:49;3.58;;;1.67;;
55270;SDS011;41132;47.162;9.470;2022-09-09T05:21:16;4.28;;;1.40;;
55270;SDS011;41132;47.162;9.470;2022-09-09T05:23:42;3.67;;;1.40;;
55270;SDS011;41132;47.162;9.470;2022-09-09T05:26:11;5.30;;;1.80;;
55270;SDS011;41132;47.162;9.470;2022-09-09T05:28:38;4.18;;;1.80;;
55270;SDS011;41132;47.162;9.470;2022-09-09T05:31:05;6.07;;;1.70;;
55270;SDS011;41132;47.162;9.470;2022-09-09T05:33:36;3.53;;;1.58;;
55270;SDS011;41132;47.162;9.470;2022-09-09T05:36:03;5.18;;;1.50;;
55270;SDS011;41132;47.162;9.470;2022-09-09T05:38:34;4.15;;;1.40;;
55270;SDS011;41132;47.162;9.470;2022-09-09T05:41:00;4.07;;;1.40;;
55270;SDS011;41132;47.162;9.470;2022-09-09T05:43:27;6.50;;;1.50;;
55270;SDS011;41132;47.162;9.470;2022-09-09T05:48:33;3.55;;;1.33;;
55270;SDS011;41132;47.162;9.470;2022-09-09T05:51:00;7.15;;;1.67;;
55270;SDS011;41132;47.162;9.470;2022-09-09T05:53:26;5.97;;;1.52;;
55270;SDS011;41132;47.162;9.470;2022-09-09T05:55:59;2.85;;;1.13;;
55270;SDS011;41132;47.162;9.470;2022-09-09T05:58:29;3.45;;;1.38;;
55270;SDS011;41132;47.162;9.470;2022-09-09T06:01:05;3.97;;;1.48;;
55270;SDS011;41132;47.162;9.470;2022-09-09T06:03:32;7.10;;;1.85;;
55270;SDS011;41132;47.162;9.470;2022-09-09T06:06:01;4.72;;;1.48;;
55270;SDS011;41132;47.162;9.470;2022-09-09T06:08:30;3.05;;;1.27;;
55270;SDS011;41132;47.162;9.470;2022-09-09T06:11:06;3.67;;;1.55;;
55270;SDS011;41132;47.162;9.470;2022-09-09T06:13:34;2.97;;;1.58;;
55270;SDS011;41132;47.162;9.470;2022-09-09T06:16:02;3.60;;;1.10;;
55270;SDS011;41132;47.162;9.470;2022-09-09T06:18:27;4.60;;;1.48;;
55270;SDS011;41132;47.162;9.470;2022-09-09T06:20:53;3.38;;;1.70;;
55270;SDS011;41132;47.162;9.470;2022-09-09T06:23:20;5.57;;;1.70;;
55270;SDS011;41132;47.162;9.470;2022-09-09T06:25:45;4.15;;;1.50;;
55270;SDS011;41132;47.162;9.470;2022-09-09T06:28:11;4.95;;;1.33;;
55270;SDS011;41132;47.162;9.470;2022-09-09T06:30:36;3.17;;;1.40;;
55270;SDS011;41132;47.162;9.470;2022-09-09T06:33:02;4.38;;;1.50;;
55270;SDS011;41132;47.162;9.470;2022-09-09T06:35:27;7.20;;;1.58;;
55270;SDS011;41132;47.162;9.470;2022-09-09T06:37:53;5.22;;;1.30;;
55270;SDS011;41132;47.162;9.470;2022-09-09T06:40:18;3.22;;;1.35;;
55270;SDS011;41132;47.162;9.470;2022-09-09T06:42:44;3.88;;;1.60;;
55270;SDS011;41132;47.162;9.470;2022-09-09T06:45:09;3.47;;;1.63;;
55270;SDS011;41132;47.162;9.470;2022-09-09T06:47:35;3.05;;;1.30;;
55270;SDS011;41132;47.162;9.470;2022-09-09T06:50:01;4.70;;;1.92;;
55270;SDS011;41132;47.162;9.470;2022-09-09T06:52:26;4.22;;;1.50;;
55270;SDS011;41132;47.162;9.470;2022-09-09T06:54:52;4.85;;;1.60;;
55270;SDS011;41132;47.162;9.470;2022-09-09T06:57:18;6.85;;;1.70;;
55270;SDS011;41132;47.162;9.470;2022-09-09T06:59:44;6.38;;;1.77;;
55270;SDS011;41132;47.162;9.470;2022-09-09T07:02:09;3.38;;;1.50;;
55270;SDS011;41132;47.162;9.470;2022-09-09T07:04:35;4.22;;;1.88;;
55270;SDS011;41132;47.162;9.470;2022-09-09T07:07:02;4.90;;;1.77;;
55270;SDS011;41132;47.162;9.470;2022-09-09T07:09:27;5.80;;;1.90;;
55270;SDS011;41132;47.162;9.470;2022-09-09T07:11:54;3.55;;;1.70;;
55270;SDS011;41132;47.162;9.470;2022-09-09T07:14:20;7.95;;;1.85;;
55270;SDS011;41132;47.162;9.470;2022-09-09T07:16:46;3.65;;;1.73;;
55270;SDS011;41132;47.162;9.470;2022-09-09T07:19:12;3.25;;;1.50;;
55270;SDS011;41132;47.162;9.470;2022-09-09T07:21:39;3.65;;;1.27;;
55270;SDS011;41132;47.162;9.470;2022-09-09T07:24:05;3.60;;;1.60;;
55270;SDS011;41132;47.162;9.470;2022-09-09T07:26:32;2.70;;;1.20;;
55270;SDS011;41132;47.162;9.470;2022-09-09T07:28:58;3.85;;;1.42;;
55270;SDS011;41132;47.162;9.470;2022-09-09T07:31:25;4.63;;;1.40;;
55270;SDS011;41132;47.162;9.470;2022-09-09T07:33:52;4.75;;;1.40;;
55270;SDS011;41132;47.162;9.470;2022-09-09T07:36:19;5.72;;;1.48;;
55270;SDS011;41132;47.162;9.470;2022-09-09T07:38:56;4.00;;;1.27;;
55270;SDS011;41132;47.162;9.470;2022-09-09T07:41:27;5.15;;;1.50;;
55270;SDS011;41132;47.162;9.470;2022-09-09T07:43:59;3.78;;;1.30;;
55270;SDS011;41132;47.162;9.470;2022-09-09T07:46:28;2.75;;;1.40;;
55270;SDS011;41132;47.162;9.470;2022-09-09T07:48:54;5.55;;;1.60;;
55270;SDS011;41132;47.162;9.470;2022-09-09T07:51:22;6.25;;;1.50;;
55270;SDS011;41132;47.162;9.470;2022-09-09T07:53:55;4.38;;;1.40;;
55270;SDS011;41132;47.162;9.470;2022-09-09T07:58:51;4.90;;;1.40;;
55270;SDS011;41132;47.162;9.470;2022-09-09T08:01:24;2.95;;;1.30;;
55270;SDS011;41132;47.162;9.470;2022-09-09T08:03:53;4.40;;;1.77;;
55270;SDS011;41132;47.162;9.470;2022-09-09T08:06:24;4.32;;;1.77;;
55270;SDS011;41132;47.162;9.470;2022-09-09T08:08:50;3.65;;;1.33;;
55270;SDS011;41132;47.162;9.470;2022-09-09T08:11:16;5.13;;;1.75;;
55270;SDS011;41132;47.162;9.470;2022-09-09T08:13:42;5.78;;;1.60;;
55270;SDS011;41132;47.162;9.470;2022-09-09T08:16:13;4.10;;;1.48;;
55270;SDS011;41132;47.162;9.470;2022-09-09T08:18:41;3.22;;;1.35;;
55270;SDS011;41132;47.162;9.470;2022-09-09T08:21:08;4.97;;;1.55;;
55270;SDS011;41132;47.162;9.470;2022-09-09T08:23:41;4.90;;;1.48;;
55270;SDS011;41132;47.162;9.470;2022-09-09T08:26:12;3.90;;;1.52;;
55270;SDS011;41132;47.162;9.470;2022-09-09T08:28:52;5.03;;;1.48;;
55270;SDS011;41132;47.162;9.470;2022-09-09T08:31:26;6.63;;;1.90;;
55270;SDS011;41132;47.162;9.470;2022-09-09T08:33:54;3.65;;;1.40;;
55270;SDS011;41132;47.162;9.470;2022-09-09T08:36:21;2.88;;;1.15;;
55270;SDS011;41132;47.162;9.470;2022-09-09T08:38:48;2.42;;;1.17;;
55270;SDS011;41132;47.162;9.470;2022-09-09T08:43:45;2.50;;;1.00;;
55270;SDS011;41132;47.162;9.470;2022-09-09T08:51:23;4.68;;;1.20;;
55270;SDS011;41132;47.162;9.470;2022-09-09T08:53:52;3.42;;;1.00;;
55270;SDS011;41132;47.162;9.470;2022-09-09T08:56:21;2.40;;;1.13;;
55270;SDS011;41132;47.162;9.470;2022-09-09T08:58:49;3.17;;;1.35;;
55270;SDS011;41132;47.162;9.470;2022-09-09T09:10:00;2.92;;;1.00;;
55270;SDS011;41132;47.162;9.470;2022-09-09T09:12:40;2.15;;;1.05;;
55270;SDS011;41132;47.162;9.470;2022-09-09T09:15:14;2.22;;;1.00;;
55270;SDS011;41132;47.162;9.470;2022-09-09T09:17:44;4.03;;;1.10;;
55270;SDS011;41132;47.162;9.470;2022-09-09T09:20:16;3.55;;;1.50;;
55270;SDS011;41132;47.162;9.470;2022-09-09T09:22:51;2.28;;;1.17;;
55270;SDS011;41132;47.162;9.470;2022-09-09T09:25:20;2.67;;;1.30;;
55270;SDS011;41132;47.162;9.470;2022-09-09T09:27:58;2.92;;;1.20;;
55270;SDS011;41132;47.162;9.470;2022-09-09T09:30:34;2.72;;;1.10;;
55270;SDS011;41132;47.162;9.470;2022-09-09T09:35:52;2.97;;;1.10;;
55270;SDS011;41132;47.162;9.470;2022-09-09T09:40:51;3.38;;;1.13;;
55270;SDS011;41132;47.162;9.470;2022-09-09T09:43:29;3.30;;;1.38;;
55270;SDS011;41132;47.162;9.470;2022-09-09T09:45:57;2.45;;;1.20;;
55270;SDS011;41132;47.162;9.470;2022-09-09T09:48:23;5.60;;;1.40;;
55270;SDS011;41132;47.162;9.470;2022-09-09T09:51:00;3.10;;;1.30;;
55270;SDS011;41132;47.162;9.470;2022-09-09T09:53:36;3.00;;;1.27;;
55270;SDS011;41132;47.162;9.470;2022-09-09T09:56:05;3.60;;;1.40;;
55270;SDS011;41132;47.162;9.470;2022-09-09T09:58:33;3.25;;;1.20;;
55270;SDS011;41132;47.162;9.470;2022-09-09T10:01:30;2.85;;;1.20;;
55270;SDS011;41132;47.162;9.470;2022-09-09T10:03:59;3.75;;;1.25;;
55270;SDS011;41132;47.162;9.470;2022-09-09T10:06:34;3.58;;;1.35;;
55270;SDS011;41132;47.162;9.470;2022-09-09T10:09:17;3.88;;;1.20;;
55270;SDS011;41132;47.162;9.470;2022-09-09T10:15:07;2.45;;;1.10;;
55270;SDS011;41132;47.162;9.470;2022-09-09T10:17:49;2.25;;;1.13;;
55270;SDS011;41132;47.162;9.470;2022-09-09T10:26:21;3.72;;;1.60;;
55270;SDS011;41132;47.162;9.470;2022-09-09T10:37:26;2.92;;;1.20;;
55270;SDS011;41132;47.162;9.470;2022-09-09T10:40:19;3.08;;;1.40;;
55270;SDS011;41132;47.162;9.470;2022-09-09T10:42:51;2.53;;;1.30;;
55270;SDS011;41132;47.162;9.470;2022-09-09T10:45:25;4.47;;;1.45;;
55270;SDS011;41132;47.162;9.470;2022-09-09T10:48:07;3.03;;;1.30;;
55270;SDS011;41132;47.162;9.470;2022-09-09T10:50:54;2.67;;;1.17;;
55270;SDS011;41132;47.162;9.470;2022-09-09T10:53:35;3.08;;;1.30;;
55270;SDS011;41132;47.162;9.470;2022-09-09T10:56:09;2.75;;;1.35;;
55270;SDS011;41132;47.162;9.470;2022-09-09T10:58:40;3.67;;;1.33;;
55270;SDS011;41132;47.162;9.470;2022-09-09T11:01:22;2.20;;;1.17;;
55270;SDS011;41132;47.162;9.470;2022-09-09T11:03:54;3.33;;;1.17;;
55270;SDS011;41132;47.162;9.470;2022-09-09T11:06:25;2.58;;;1.02;;
55270;SDS011;41132;47.162;9.470;2022-09-09T11:08:57;2.60;;;1.25;;
55270;SDS011;41132;47.162;9.470;2022-09-09T11:11:39;2.22;;;1.17;;
55270;SDS011;41132;47.162;9.470;2022-09-09T11:14:15;2.13;;;0.98;;
55270;SDS011;41132;47.162;9.470;2022-09-09T11:16:59;3.17;;;1.10;;
55270;SDS011;41132;47.162;9.470;2022-09-09T11:19:41;3.78;;;1.38;;
55270;SDS011;41132;47.162;9.470;2022-09-09T11:22:23;2.13;;;1.00;;
55270;SDS011;41132;47.162;9.470;2022-09-09T11:36:40;1.95;;;1.05;;
55270;SDS011;41132;47.162;9.470;2022-09-09T11:39:24;5.00;;;1.33;;
55270;SDS011;41132;47.162;9.470;2022-09-09T11:42:07;2.60;;;1.10;;
55270;SDS011;41132;47.162;9.470;2022-09-09T11:44:43;1.48;;;0.90;;
55270;SDS011;41132;47.162;9.470;2022-09-09T11:47:25;2.58;;;1.10;;
55270;SDS011;41132;47.162;9.470;2022-09-09T11:55:39;1.90;;;0.98;;
55270;SDS011;41132;47.162;9.470;2022-09-09T12:00:40;1.55;;;0.90;;
55270;SDS011;41132;47.162;9.470;2022-09-09T12:03:55;2.25;;;1.17;;
55270;SDS011;41132;47.162;9.470;2022-09-09T12:06:08;3.25;;;1.20;;
55270;SDS011;41132;47.162;9.470;2022-09-09T12:09:08;2.83;;;1.00;;
55270;SDS011;41132;47.162;9.470;2022-09-09T12:11:43;2.20;;;1.10;;
55270;SDS011;41132;47.162;9.470;2022-09-09T12:14:18;4.53;;;1.33;;
55270;SDS011;41132;47.162;9.470;2022-09-09T12:16:47;1.58;;;0.90;;
55270;SDS011;41132;47.162;9.470;2022-09-09T12:19:14;1.73;;;0.98;;
55270;SDS011;41132;47.162;9.470;2022-09-09T12:21:52;1.98;;;0.93;;
55270;SDS011;41132;47.162;9.470;2022-09-09T12:27:20;3.85;;;1.38;;
55270;SDS011;41132;47.162;9.470;2022-09-09T12:30:04;3.08;;;1.27;;
55270;SDS011;41132;47.162;9.470;2022-09-09T12:32:35;2.42;;;1.20;;
55270;SDS011;41132;47.162;9.470;2022-09-09T12:35:03;1.70;;;1.10;;
55270;SDS011;41132;47.162;9.470;2022-09-09T12:37:49;2.05;;;0.93;;
55270;SDS011;41132;47.162;9.470;2022-09-09T12:40:25;2.78;;;1.20;;
55270;SDS011;41132;47.162;9.470;2022-09-09T12:45:23;2.45;;;1.10;;
55270;SDS011;41132;47.162;9.470;2022-09-09T12:47:55;1.90;;;1.05;;
55270;SDS011;41132;47.162;9.470;2022-09-09T12:50:35;1.85;;;0.95;;
55270;SDS011;41132;47.162;9.470;2022-09-09T12:53:45;2.40;;;1.00;;
55270;SDS011;41132;47.162;9.470;2022-09-09T12:55:57;3.17;;;0.90;;
55270;SDS011;41132;47.162;9.470;2022-09-09T12:58:24;1.70;;;0.82;;
55270;SDS011;41132;47.162;9.470;2022-09-09T13:00:54;3.60;;;1.50;;
55270;SDS011;41132;47.162;9.470;2022-09-09T13:03:23;3.00;;;1.10;;
55270;SDS011;41132;47.162;9.470;2022-09-09T13:05:52;2.80;;;0.90;;
55270;SDS011;41132;47.162;9.470;2022-09-09T13:08:19;1.23;;;0.80;;
55270;SDS011;41132;47.162;9.470;2022-09-09T13:13:14;2.40;;;0.98;;
55270;SDS011;41132;47.162;9.470;2022-09-09T13:15:48;3.40;;;1.10;;
55270;SDS011;41132;47.162;9.470;2022-09-09T13:18:25;1.85;;;0.93;;
55270;SDS011;41132;47.162;9.470;2022-09-09T13:20:54;2.55;;;1.00;;
55270;SDS011;41132;47.162;9.470;2022-09-09T13:23:22;3.72;;;1.25;;
55270;SDS011;41132;47.162;9.470;2022-09-09T13:26:03;2.22;;;0.98;;
55270;SDS011;41132;47.162;9.470;2022-09-09T13:28:31;1.50;;;0.88;;
55270;SDS011;41132;47.162;9.470;2022-09-09T13:31:02;3.13;;;1.10;;
55270;SDS011;41132;47.162;9.470;2022-09-09T13:33:36;2.15;;;0.93;;
55270;SDS011;41132;47.162;9.470;2022-09-09T13:36:09;4.35;;;1.15;;
55270;SDS011;41132;47.162;9.470;2022-09-09T13:38:40;1.95;;;1.00;;
55270;SDS011;41132;47.162;9.470;2022-09-09T13:41:21;2.25;;;0.90;;
55270;SDS011;41132;47.162;9.470;2022-09-09T13:43:49;3.28;;;1.20;;
55270;SDS011;41132;47.162;9.470;2022-09-09T13:48:53;2.58;;;1.10;;
55270;SDS011;41132;47.162;9.470;2022-09-09T13:53:51;3.35;;;1.00;;
55270;SDS011;41132;47.162;9.470;2022-09-09T13:56:17;1.65;;;0.93;;
55270;SDS011;41132;47.162;9.470;2022-09-09T13:58:43;1.17;;;0.80;;
55270;SDS011;41132;47.162;9.470;2022-09-09T14:01:08;1.55;;;0.80;;
55270;SDS011;41132;47.162;9.470;2022-09-09T14:03:35;1.80;;;0.95;;
55270;SDS011;41132;47.162;9.470;2022-09-09T14:06:00;4.15;;;1.00;;
55270;SDS011;41132;47.162;9.470;2022-09-09T14:08:26;2.50;;;0.90;;
55270;SDS011;41132;47.162;9.470;2022-09-09T14:10:52;2.85;;;1.00;;
55270;SDS011;41132;47.162;9.470;2022-09-09T14:13:20;3.10;;;1.00;;
55270;SDS011;41132;47.162;9.470;2022-09-09T14:15:47;3.45;;;1.02;;
55270;SDS011;41132;47.162;9.470;2022-09-09T14:18:13;2.83;;;1.42;;
55270;SDS011;41132;47.162;9.470;2022-09-09T14:20:38;2.40;;;1.00;;
55270;SDS011;41132;47.162;9.470;2022-09-09T14:23:04;2.50;;;1.00;;
55270;SDS011;41132;47.162;9.470;2022-09-09T14:25:30;2.50;;;1.00;;
55270;SDS011;41132;47.162;9.470;2022-09-09T14:27:56;3.13;;;1.00;;
55270;SDS011;41132;47.162;9.470;2022-09-09T14:30:21;3.17;;;1.00;;
55270;SDS011;41132;47.162;9.470;2022-09-09T14:32:46;1.48;;;0.90;;
55270;SDS011;41132;47.162;9.470;2022-09-09T14:35:12;2.47;;;1.10;;
55270;SDS011;41132;47.162;9.470;2022-09-09T14:37:37;1.02;;;0.80;;
55270;SDS011;41132;47.162;9.470;2022-09-09T14:40:04;1.27;;;0.90;;
55270;SDS011;41132;47.162;9.470;2022-09-09T14:42:30;2.38;;;0.93;;
55270;SDS011;41132;47.162;9.470;2022-09-09T14:44:55;1.50;;;0.77;;
55270;SDS011;41132;47.162;9.470;2022-09-09T14:47:20;3.08;;;1.30;;
55270;SDS011;41132;47.162;9.470;2022-09-09T14:49:47;1.85;;;0.80;;
55270;SDS011;41132;47.162;9.470;2022-09-09T14:52:14;1.95;;;1.00;;
55270;SDS011;41132;47.162;9.470;2022-09-09T14:54:39;1.08;;;0.80;;
55270;SDS011;41132;47.162;9.470;2022-09-09T14:57:05;2.47;;;1.10;;
55270;SDS011;41132;47.162;9.470;2022-09-09T14:59:30;3.33;;;0.95;;
55270;SDS011;41132;47.162;9.470;2022-09-09T15:01:55;1.45;;;0.95;;
55270;SDS011;41132;47.162;9.470;2022-09-09T15:04:21;2.80;;;1.10;;
55270;SDS011;41132;47.162;9.470;2022-09-09T15:06:46;2.47;;;0.95;;
55270;SDS011;41132;47.162;9.470;2022-09-09T15:09:13;2.13;;;1.00;;
55270;SDS011;41132;47.162;9.470;2022-09-09T15:11:39;3.88;;;1.23;;
55270;SDS011;41132;47.162;9.470;2022-09-09T15:14:05;2.53;;;1.10;;
55270;SDS011;41132;47.162;9.470;2022-09-09T15:16:33;2.10;;;0.98;;
55270;SDS011;41132;47.162;9.470;2022-09-09T15:19:00;1.98;;;0.85;;
55270;SDS011;41132;47.162;9.470;2022-09-09T15:21:30;2.65;;;1.00;;
55270;SDS011;41132;47.162;9.470;2022-09-09T15:23:57;1.77;;;1.10;;
55270;SDS011;41132;47.162;9.470;2022-09-09T15:26:23;2.95;;;1.10;;
55270;SDS011;41132;47.162;9.470;2022-09-09T15:28:49;1.83;;;0.93;;
55270;SDS011;41132;47.162;9.470;2022-09-09T15:34:00;1.27;;;0.82;;
55270;SDS011;41132;47.162;9.470;2022-09-09T15:36:31;1.40;;;0.90;;
55270;SDS011;41132;47.162;9.470;2022-09-09T15:39:04;1.60;;;1.02;;
55270;SDS011;41132;47.162;9.470;2022-09-09T15:41:32;2.20;;;1.08;;
55270;SDS011;41132;47.162;9.470;2022-09-09T15:43:57;1.65;;;0.90;;
55270;SDS011;41132;47.162;9.470;2022-09-09T15:46:35;1.75;;;0.90;;
55270;SDS011;41132;47.162;9.470;2022-09-09T15:49:16;1.88;;;1.00;;
55270;SDS011;41132;47.162;9.470;2022-09-09T15:51:45;1.92;;;1.00;;
55270;SDS011;41132;47.162;9.470;2022-09-09T15:54:16;2.17;;;1.02;;
55270;SDS011;41132;47.162;9.470;2022-09-09T15:56:43;2.05;;;0.90;;
55270;SDS011;41132;47.162;9.470;2022-09-09T15:59:09;2.50;;;1.00;;
55270;SDS011;41132;47.162;9.470;2022-09-09T16:01:34;4.10;;;1.13;;
55270;SDS011;41132;47.162;9.470;2022-09-09T16:04:01;1.88;;;0.90;;
55270;SDS011;41132;47.162;9.470;2022-09-09T16:06:27;1.73;;;0.93;;
55270;SDS011;41132;47.162;9.470;2022-09-09T16:08:55;2.70;;;1.05;;
55270;SDS011;41132;47.162;9.470;2022-09-09T16:11:23;3.10;;;1.08;;
55270;SDS011;41132;47.162;9.470;2022-09-09T16:13:53;4.10;;;1.30;;
55270;SDS011;41132;47.162;9.470;2022-09-09T16:16:20;2.88;;;1.20;;
55270;SDS011;41132;47.162;9.470;2022-09-09T16:18:59;2.35;;;0.95;;
55270;SDS011;41132;47.162;9.470;2022-09-09T16:21:31;4.40;;;1.40;;
55270;SDS011;41132;47.162;9.470;2022-09-09T16:23:59;2.33;;;1.10;;
55270;SDS011;41132;47.162;9.470;2022-09-09T16:26:27;2.20;;;1.08;;
55270;SDS011;41132;47.162;9.470;2022-09-09T16:28:54;4.53;;;1.10;;
55270;SDS011;41132;47.162;9.470;2022-09-09T16:31:21;3.20;;;1.00;;
55270;SDS011;41132;47.162;9.470;2022-09-09T16:33:48;3.15;;;1.00;;
55270;SDS011;41132;47.162;9.470;2022-09-09T16:36:16;3.47;;;1.17;;
55270;SDS011;41132;47.162;9.470;2022-09-09T16:38:43;5.20;;;1.33;;
55270;SDS011;41132;47.162;9.470;2022-09-09T16:41:09;2.42;;;1.20;;
55270;SDS011;41132;47.162;9.470;2022-09-09T16:43:35;2.75;;;1.00;;
55270;SDS011;41132;47.162;9.470;2022-09-09T16:46:02;2.85;;;1.27;;
55270;SDS011;41132;47.162;9.470;2022-09-09T16:48:32;1.52;;;1.00;;
55270;SDS011;41132;47.162;9.470;2022-09-09T16:51:09;2.65;;;1.17;;
55270;SDS011;41132;47.162;9.470;2022-09-09T16:53:39;3.28;;;0.93;;
55270;SDS011;41132;47.162;9.470;2022-09-09T16:56:08;5.97;;;1.27;;
55270;SDS011;41132;47.162;9.470;2022-09-09T16:58:34;2.88;;;1.15;;
55270;SDS011;41132;47.162;9.470;2022-09-09T17:01:00;4.10;;;1.10;;
55270;SDS011;41132;47.162;9.470;2022-09-09T17:03:29;3.40;;;1.10;;
55270;SDS011;41132;47.162;9.470;2022-09-09T17:05:56;2.15;;;1.10;;
55270;SDS011;41132;47.162;9.470;2022-09-09T17:08:23;1.63;;;0.90;;
55270;SDS011;41132;47.162;9.470;2022-09-09T17:10:48;2.65;;;1.10;;
55270;SDS011;41132;47.162;9.470;2022-09-09T17:13:14;3.95;;;1.20;;
55270;SDS011;41132;47.162;9.470;2022-09-09T17:15:40;3.58;;;1.10;;
55270;SDS011;41132;47.162;9.470;2022-09-09T17:18:07;2.85;;;1.30;;